Time;durP1;ratioP1;P1;durP2;ratioP2;P2;SDS_P1;SDS_P2;PMS_P1;PMS_P2;Temp;Humidity;BMP_temperature;BMP_pressure;BME280_temperature;BME280_humidity;BME280_pressure;Samples;Min_cycle;Max_cycle;Signal;HPM_P1;HPM_P2
2023/07/27 00:01:22;;;;;;;0.00;0.00;;;;;;;12.23;100.00;96253.91;5026213;28;20052;-77
2023/07/27 00:04:08;;;;;;;0.10;0.10;;;;;;;12.15;100.00;96257.09;5038425;28;20478;-77
2023/07/27 00:06:54;;;;;;;0.10;0.10;;;;;;;12.19;100.00;96252.81;5037689;28;20033;-75
2023/07/27 00:09:40;;;;;;;0.10;0.10;;;;;;;12.13;100.00;96250.38;5037392;28;20044;-76
2023/07/27 00:12:26;;;;;;;0.10;0.10;;;;;;;12.18;100.00;96247.72;5037685;28;20132;-78
2023/07/27 00:15:12;;;;;;;0.20;0.20;;;;;;;12.19;100.00;96252.00;5041804;28;20487;-77
2023/07/27 00:17:58;;;;;;;0.00;0.00;;;;;;;12.18;100.00;96245.03;5036476;28;20061;-77
2023/07/27 00:20:44;;;;;;;0.10;0.10;;;;;;;12.17;100.00;96251.47;5020644;28;20055;-77
2023/07/27 00:23:29;;;;;;;0.10;0.10;;;;;;;12.22;100.00;96240.75;5037832;28;20041;-77
2023/07/27 00:26:15;;;;;;;0.10;0.10;;;;;;;12.26;100.00;96241.84;5038176;28;20041;-77
2023/07/27 00:29:01;;;;;;;0.10;0.10;;;;;;;12.25;100.00;96232.19;5037562;28;20473;-77
2023/07/27 00:31:47;;;;;;;0.10;0.10;;;;;;;12.26;100.00;96231.91;5036157;28;20633;-77
2023/07/27 00:34:33;;;;;;;0.10;0.10;;;;;;;12.24;100.00;96239.41;5021930;28;20224;-79
2023/07/27 00:37:18;;;;;;;0.10;0.10;;;;;;;12.19;100.00;96234.03;5024922;28;20269;-78
2023/07/27 00:40:05;;;;;;;0.10;0.10;;;;;;;12.22;100.00;96233.53;5036834;28;20476;-77
2023/07/27 00:42:51;;;;;;;0.10;0.10;;;;;;;12.13;100.00;96226.22;5021984;28;20411;-76
2023/07/27 00:45:37;;;;;;;0.10;0.10;;;;;;;12.19;100.00;96227.84;5034435;28;20577;-78
2023/07/27 00:48:25;;;;;;;0.10;0.10;;;;;;;12.14;100.00;96223.31;5021598;28;20413;-77
2023/07/27 00:51:11;;;;;;;0.10;0.10;;;;;;;12.12;100.00;96225.41;5038398;28;20146;-77
2023/07/27 00:53:57;;;;;;;0.10;0.10;;;;;;;12.20;100.00;96211.50;5033283;28;20037;-77
2023/07/27 00:56:43;;;;;;;0.10;0.10;;;;;;;12.24;100.00;96206.44;5042152;28;20060;-76
2023/07/27 00:59:29;;;;;;;0.10;0.10;;;;;;;12.19;100.00;96207.19;5040735;28;20095;-76
2023/07/27 01:02:16;;;;;;;0.10;0.10;;;;;;;12.21;100.00;96206.94;5036232;28;20131;-77
2023/07/27 01:05:02;;;;;;;0.10;0.10;;;;;;;12.19;100.00;96193.00;5020652;28;20059;-76
2023/07/27 01:07:48;;;;;;;0.10;0.10;;;;;;;12.15;100.00;96183.88;5034904;28;20338;-77
2023/07/27 01:10:57;;;;;;;0.10;0.10;;;;;;;12.15;100.00;96178.50;5018002;28;20891;-77
2023/07/27 01:13:51;;;;;;;0.10;0.10;;;;;;;12.18;100.00;96177.97;5033388;28;20129;-78
2023/07/27 01:16:42;;;;;;;0.10;0.10;;;;;;;12.25;100.00;96167.78;5034643;28;20071;-77
2023/07/27 01:20:01;;;;;;;;;;;;;;;12.21;100.00;96169.38;5018972;28;20493;-77
2023/07/27 01:23:21;;;;;;;0.00;0.00;;;;;;;12.10;100.00;96152.47;5020053;28;19949;-77
2023/07/27 01:26:37;;;;;;;0.10;0.10;;;;;;;12.11;100.00;96164.00;5036816;28;20041;-77
2023/07/27 01:29:38;;;;;;;0.10;0.10;;;;;;;12.09;100.00;96156.22;5036222;28;20494;-77
2023/07/27 01:32:28;;;;;;;0.10;0.10;;;;;;;12.10;100.00;96157.03;5035671;28;20052;-77
2023/07/27 01:35:16;;;;;;;0.10;0.10;;;;;;;12.10;100.00;96135.56;5025548;28;20048;-76
2023/07/27 01:38:04;;;;;;;0.10;0.10;;;;;;;12.12;100.00;96149.50;5035082;28;20131;-77
2023/07/27 01:40:55;;;;;;;0.10;0.10;;;;;;;12.03;100.00;96151.91;5036392;28;20083;-77
2023/07/27 01:43:43;;;;;;;0.10;0.10;;;;;;;11.98;100.00;96152.72;5008775;28;20047;-78
2023/07/27 01:46:31;;;;;;;0.10;0.10;;;;;;;11.99;100.00;96146.28;5019960;28;20066;-78
2023/07/27 01:49:18;;;;;;;0.10;0.10;;;;;;;12.01;100.00;96139.84;5020739;28;20083;-76
2023/07/27 01:52:06;;;;;;;0.03;0.03;;;;;;;11.96;100.00;96138.75;5035398;28;20538;-77
2023/07/27 01:54:54;;;;;;;0.10;0.10;;;;;;;12.06;100.00;96140.69;5031238;28;20073;-78
2023/07/27 01:57:40;;;;;;;0.10;0.10;;;;;;;12.01;100.00;96131.81;5033753;28;20475;-77
2023/07/27 02:00:28;;;;;;;0.10;0.10;;;;;;;11.95;100.00;96133.66;5021195;28;20055;-78
2023/07/27 02:03:16;;;;;;;0.10;0.10;;;;;;;11.94;100.00;96127.50;5010569;28;20058;-79
2023/07/27 02:06:02;;;;;;;0.10;0.10;;;;;;;11.97;100.00;96118.91;5009140;28;20161;-78
2023/07/27 02:08:47;;;;;;;0.10;0.10;;;;;;;11.95;100.00;96122.94;4990949;28;20128;-78
2023/07/27 02:11:33;;;;;;;0.10;0.10;;;;;;;11.87;100.00;96129.63;4994256;28;20644;-78
2023/07/27 02:14:51;;;;;;;0.10;0.10;;;;;;;11.91;100.00;96114.63;4995516;28;20304;-79
2023/07/27 02:17:41;;;;;;;0.10;0.10;;;;;;;11.93;100.00;96112.50;5003284;28;20385;-76
2023/07/27 02:20:33;;;;;;;0.03;0.03;;;;;;;11.95;100.00;96104.97;4995808;28;20489;-79
2023/07/27 02:23:21;;;;;;;0.10;0.10;;;;;;;11.89;100.00;96106.03;4994176;28;20425;-77
2023/07/27 02:26:07;;;;;;;0.10;0.10;;;;;;;11.92;100.00;96102.84;5010170;28;20045;-77
2023/07/27 02:28:53;;;;;;;0.10;0.10;;;;;;;11.93;100.00;96099.09;5004927;28;20321;-76
2023/07/27 02:32:14;;;;;;;0.10;0.10;;;;;;;11.93;100.00;96099.09;4994177;28;20054;-76
2023/07/27 02:35:00;;;;;;;0.10;0.10;;;;;;;11.95;100.00;96094.25;4993170;28;20049;-76
2023/07/27 02:37:46;;;;;;;0.00;0.00;;;;;;;11.98;100.00;96085.69;4992266;28;20065;-79
2023/07/27 02:40:32;;;;;;;0.10;0.10;;;;;;;12.01;100.00;96088.91;5008357;28;20052;-77
2023/07/27 02:43:18;;;;;;;0.10;0.10;;;;;;;12.05;100.00;96076.56;4996535;28;20046;-76
2023/07/27 02:46:05;;;;;;;0.05;0.05;;;;;;;12.05;100.00;96081.91;5014814;28;20042;-77
2023/07/27 02:48:53;;;;;;;0.10;0.10;;;;;;;12.13;100.00;96073.34;4990345;28;20475;-78
2023/07/27 02:51:41;;;;;;;0.10;0.10;;;;;;;12.18;100.00;96076.03;5012095;28;20049;-79
2023/07/27 02:54:26;;;;;;;0.10;0.10;;;;;;;12.09;100.00;96067.72;4994267;28;20045;-77
2023/07/27 02:57:14;;;;;;;0.10;0.10;;;;;;;12.16;100.00;96075.50;4981194;28;20096;-77
2023/07/27 03:00:05;;;;;;;0.10;0.10;;;;;;;12.23;100.00;96074.19;4984348;28;20038;-77
2023/07/27 03:02:53;;;;;;;0.10;0.10;;;;;;;12.31;100.00;96072.03;4999391;28;20128;-78
2023/07/27 03:05:39;;;;;;;0.10;0.10;;;;;;;12.30;100.00;96068.56;5020914;28;20037;-77
2023/07/27 03:08:26;;;;;;;0.00;0.00;;;;;;;12.31;100.00;96075.53;5030334;28;20415;-77
2023/07/27 03:11:12;;;;;;;0.10;0.10;;;;;;;12.28;100.00;96068.78;5034318;28;20048;-78
2023/07/27 03:13:58;;;;;;;0.10;0.10;;;;;;;12.26;100.00;96070.16;5025275;28;20068;-77
2023/07/27 03:16:44;;;;;;;0.10;0.10;;;;;;;12.27;100.00;96066.38;5022364;28;21001;-79
2023/07/27 03:19:31;;;;;;;0.00;0.00;;;;;;;12.33;100.00;96069.88;5021210;28;20095;-77
2023/07/27 03:22:16;;;;;;;0.10;0.10;;;;;;;12.31;100.00;96077.41;5035415;28;20601;-79
2023/07/27 03:25:03;;;;;;;0.10;0.10;;;;;;;12.32;100.00;96069.06;5035328;28;20047;-79
2023/07/27 03:27:48;;;;;;;0.10;0.10;;;;;;;12.28;100.00;96063.44;5033777;28;20474;-77
2023/07/27 03:30:35;;;;;;;0.10;0.10;;;;;;;12.21;100.00;96075.50;5020619;28;20041;-78
2023/07/27 03:33:21;;;;;;;0.10;0.10;;;;;;;12.14;100.00;96066.91;5035980;28;20071;-78
2023/07/27 03:36:07;;;;;;;0.10;0.10;;;;;;;12.23;100.00;96071.50;5042194;28;20135;-77
2023/07/27 03:38:53;;;;;;;0.10;0.10;;;;;;;12.23;100.00;96074.19;5035775;28;20041;-77
2023/07/27 03:41:39;;;;;;;0.10;0.10;;;;;;;12.25;100.00;96066.66;5036893;28;20037;-77
2023/07/27 03:44:26;;;;;;;0.10;0.10;;;;;;;12.30;100.00;96065.88;5036230;28;20364;-76
2023/07/27 03:47:13;;;;;;;0.00;0.00;;;;;;;12.26;100.00;96062.91;5021879;28;20041;-78
2023/07/27 03:50:02;;;;;;;0.10;0.10;;;;;;;12.32;100.00;96052.19;5023028;28;20091;-77
2023/07/27 03:52:48;;;;;;;0.10;0.10;;;;;;;12.37;100.00;96063.69;5017208;28;20041;-77
2023/07/27 03:55:34;;;;;;;0.10;0.10;;;;;;;12.36;100.00;96053.22;5024648;28;20044;-78
2023/07/27 03:58:20;;;;;;;0.10;0.10;;;;;;;12.44;100.00;96056.19;5038035;28;20450;-78
2023/07/27 04:01:06;;;;;;;0.10;0.10;;;;;;;12.46;100.00;96054.06;5037391;28;20499;-78
2023/07/27 04:03:52;;;;;;;0.05;0.05;;;;;;;12.49;100.00;96042.75;5032547;28;20060;-76
2023/07/27 04:06:41;;;;;;;0.10;0.10;;;;;;;12.50;100.00;96040.88;5037044;28;20064;-76
2023/07/27 04:09:28;;;;;;;0.10;0.10;;;;;;;12.51;100.00;96034.44;5042139;28;20049;-78
2023/07/27 04:12:14;;;;;;;0.10;0.10;;;;;;;12.64;100.00;96033.88;5027126;28;20135;-77
2023/07/27 04:15:00;;;;;;;0.10;0.10;;;;;;;12.55;100.00;96030.94;5023144;28;20664;-78
2023/07/27 04:17:46;;;;;;;0.10;0.10;;;;;;;12.57;100.00;96036.03;5037715;28;20032;-76
2023/07/27 04:20:32;;;;;;;0.20;0.20;;;;;;;12.57;100.00;96027.19;5024171;28;20036;-77
2023/07/27 04:23:17;;;;;;;0.10;0.10;;;;;;;12.64;100.00;96031.19;5040534;28;20041;-78
2023/07/27 04:26:03;;;;;;;0.10;0.10;;;;;;;12.75;100.00;96027.41;5024009;28;20506;-78
2023/07/27 04:28:49;;;;;;;0.10;0.10;;;;;;;12.66;100.00;96015.63;5035327;28;20719;-78
2023/07/27 04:31:35;;;;;;;0.00;0.00;;;;;;;12.58;100.00;96021.53;5038215;28;20045;-78
2023/07/27 04:34:21;;;;;;;0.10;0.10;;;;;;;12.69;100.00;96015.09;5036103;28;20037;-78
2023/07/27 04:37:07;;;;;;;0.10;0.10;;;;;;;12.74;100.00;96012.38;5035650;28;20080;-77
2023/07/27 04:39:53;;;;;;;0.10;0.10;;;;;;;12.62;100.00;96013.78;5024508;28;20043;-76
2023/07/27 04:42:39;;;;;;;0.00;0.00;;;;;;;12.61;100.00;96002.22;5024813;28;20066;-78
2023/07/27 04:45:25;;;;;;;0.10;0.10;;;;;;;12.61;100.00;96006.81;5040591;28;20056;-77
2023/07/27 04:48:11;;;;;;;0.10;0.10;;;;;;;12.59;100.00;96008.94;5038456;28;20040;-77
2023/07/27 04:50:57;;;;;;;0.10;0.10;;;;;;;12.58;100.00;96010.00;5036740;28;20040;-79
2023/07/27 04:53:43;;;;;;;0.00;0.00;;;;;;;12.66;100.00;96004.88;5037561;28;20802;-77
2023/07/27 04:56:28;;;;;;;0.10;0.10;;;;;;;12.67;100.00;95998.44;5022897;28;20033;-77
2023/07/27 04:59:14;;;;;;;0.10;0.10;;;;;;;12.56;100.00;95999.56;5037145;28;20053;-79
2023/07/27 05:02:01;;;;;;;0.10;0.10;;;;;;;12.60;100.00;95986.38;5021876;28;20505;-78
2023/07/27 05:04:50;;;;;;;0.10;0.10;;;;;;;12.51;100.00;95992.31;5039684;28;20087;-78
2023/07/27 05:07:36;;;;;;;0.10;0.10;;;;;;;12.36;100.00;95980.78;5039456;28;20037;-76
2023/07/27 05:10:23;;;;;;;0.05;0.05;;;;;;;12.25;100.00;95980.00;5042501;28;20842;-77
2023/07/27 05:13:09;;;;;;;0.10;0.10;;;;;;;12.41;100.00;95986.16;5038387;28;20041;-77
2023/07/27 05:15:55;;;;;;;0.10;0.10;;;;;;;12.20;100.00;95970.09;5036656;28;20041;-77
2023/07/27 05:18:41;;;;;;;0.10;0.10;;;;;;;12.16;100.00;95982.44;5038472;28;20037;-78
2023/07/27 05:21:27;;;;;;;0.10;0.10;;;;;;;12.14;100.00;95975.72;5038426;28;20033;-78
2023/07/27 05:24:12;;;;;;;0.10;0.10;;;;;;;11.98;100.00;95967.72;5039129;28;20076;-79
2023/07/27 05:26:58;;;;;;;0.10;0.10;;;;;;;11.92;100.00;95976.81;5036584;28;20144;-77
2023/07/27 05:29:44;;;;;;;0.10;0.10;;;;;;;11.93;100.00;95973.06;5037655;28;20033;-77
2023/07/27 05:32:30;;;;;;;0.10;0.10;;;;;;;11.98;100.00;95965.03;5037153;28;20065;-77
2023/07/27 05:35:16;;;;;;;0.05;0.05;;;;;;;11.94;100.00;95963.94;5023467;28;20458;-78
2023/07/27 05:38:02;;;;;;;0.10;0.10;;;;;;;11.86;100.00;95955.63;5023062;28;20066;-78
2023/07/27 05:40:48;;;;;;;0.10;0.10;;;;;;;11.95;100.00;95957.50;5038707;28;20640;-77
2023/07/27 05:43:33;;;;;;;0.10;0.10;;;;;;;12.02;100.00;95956.44;5034010;28;20322;-78
2023/07/27 05:46:19;;;;;;;0.10;0.10;;;;;;;11.96;100.00;95952.94;5039317;28;20583;-78
2023/07/27 05:49:05;;;;;;;0.10;0.10;;;;;;;11.83;100.00;95950.78;5037196;28;20044;-76
2023/07/27 05:51:52;;;;;;;0.10;0.10;;;;;;;11.88;100.00;95950.81;5021317;28;20154;-78
2023/07/27 05:54:37;;;;;;;0.10;0.10;;;;;;;11.88;100.00;95946.25;5041132;28;20507;-79
2023/07/27 05:57:24;;;;;;;0.10;0.10;;;;;;;11.86;100.00;95944.91;5039931;28;20045;-77
2023/07/27 06:00:10;;;;;;;0.10;0.10;;;;;;;11.95;100.00;95951.34;5022363;28;20044;-78
2023/07/27 06:02:56;;;;;;;0.10;0.10;;;;;;;11.94;100.00;95953.22;5034675;28;20049;-76
2023/07/27 06:05:45;;;;;;;0.10;0.10;;;;;;;11.88;100.00;95954.28;5035948;28;20041;-77
2023/07/27 06:08:31;;;;;;;0.10;0.10;;;;;;;11.86;100.00;95937.69;5036257;28;20616;-78
2023/07/27 06:11:20;;;;;;;0.10;0.10;;;;;;;11.89;100.00;95942.50;5037175;28;20526;-78
2023/07/27 06:14:05;;;;;;;0.10;0.10;;;;;;;11.86;100.00;95937.69;5035976;28;20098;-78
2023/07/27 06:16:51;;;;;;;0.20;0.20;;;;;;;11.85;100.00;95930.72;5036941;28;20388;-77
2023/07/27 06:19:37;;;;;;;0.10;0.10;;;;;;;11.85;100.00;95929.91;5022630;28;20042;-78
2023/07/27 06:22:23;;;;;;;0.10;0.10;;;;;;;11.96;100.00;95929.63;5038141;28;20064;-79
2023/07/27 06:25:12;;;;;;;0.10;0.10;;;;;;;11.97;100.00;95925.06;5035518;28;20048;-80
2023/07/27 06:27:57;;;;;;;0.10;0.10;;;;;;;11.96;100.00;95926.94;5036051;28;20036;-79
2023/07/27 06:30:45;;;;;;;0.10;0.10;;;;;;;11.91;100.00;95934.19;5030108;28;20045;-78
2023/07/27 06:33:31;;;;;;;0.10;0.10;;;;;;;12.04;100.00;95927.47;5037489;28;20047;-77
2023/07/27 06:36:20;;;;;;;0.10;0.10;;;;;;;11.91;100.00;95926.16;5037748;28;20534;-77
2023/07/27 06:39:06;;;;;;;0.10;0.10;;;;;;;12.01;100.00;95926.13;5032885;28;20414;-77
2023/07/27 06:41:51;;;;;;;0.10;0.10;;;;;;;11.99;100.00;95926.41;5033690;28;20123;-78
2023/07/27 06:44:46;;;;;;;0.10;0.10;;;;;;;12.04;100.00;95928.25;5022172;28;20286;-76
2023/07/27 06:47:32;;;;;;;0.10;0.10;;;;;;;11.98;100.00;95932.84;5019973;28;20032;-78
2023/07/27 06:50:18;;;;;;;0.08;0.08;;;;;;;11.84;100.00;95917.59;5036447;28;21170;-77
2023/07/27 06:53:03;;;;;;;0.00;0.00;;;;;;;11.92;100.00;95909.78;5016748;28;20072;-78
2023/07/27 06:55:49;;;;;;;0.10;0.10;;;;;;;11.99;100.00;95909.53;5034284;28;20037;-78
2023/07/27 06:58:35;;;;;;;0.10;0.10;;;;;;;11.99;100.00;95899.59;5037571;28;20051;-78
2023/07/27 07:01:21;;;;;;;0.10;0.10;;;;;;;12.04;100.00;95895.28;5035785;28;20044;-79
2023/07/27 07:04:07;;;;;;;0.10;0.10;;;;;;;12.00;100.00;95887.00;5033484;28;20061;-78
2023/07/27 07:06:53;;;;;;;0.00;0.00;;;;;;;11.98;100.00;95895.31;5037210;28;20071;-79
2023/07/27 07:09:38;;;;;;;0.10;0.10;;;;;;;11.96;100.00;95900.13;5035698;28;20117;-78
2023/07/27 07:12:24;;;;;;;0.10;0.10;;;;;;;11.92;100.00;95909.78;5021701;28;20112;-76
2023/07/27 07:15:10;;;;;;;0.10;0.10;;;;;;;12.02;100.00;95897.44;5034918;28;20577;-78
2023/07/27 07:17:56;;;;;;;0.10;0.10;;;;;;;12.08;100.00;95886.44;5033996;28;20036;-77
2023/07/27 07:20:42;;;;;;;0.10;0.10;;;;;;;12.10;100.00;95889.66;5036475;28;20036;-78
2023/07/27 07:23:28;;;;;;;0.10;0.10;;;;;;;12.16;100.00;95885.09;5033222;28;20426;-78
2023/07/27 07:26:14;;;;;;;0.10;0.10;;;;;;;12.12;100.00;95897.41;5037518;28;20620;-78
2023/07/27 07:29:00;;;;;;;0.10;0.10;;;;;;;12.27;100.00;95889.34;5035958;28;20038;-78
2023/07/27 07:31:46;;;;;;;0.10;0.10;;;;;;;12.28;100.00;95874.84;5035595;28;20053;-78
2023/07/27 07:34:35;;;;;;;0.10;0.10;;;;;;;12.32;100.00;95885.84;5035158;28;20048;-78
2023/07/27 07:37:21;;;;;;;0.10;0.10;;;;;;;12.31;100.00;95873.50;5032803;28;20088;-77
2023/07/27 07:40:07;;;;;;;0.10;0.10;;;;;;;12.32;100.00;95885.84;5036376;28;20042;-76
2023/07/27 07:42:55;;;;;;;0.10;0.10;;;;;;;12.35;100.00;95886.09;5034438;28;20112;-77
2023/07/27 07:45:42;;;;;;;0.10;0.10;;;;;;;12.47;100.00;95875.88;5030681;28;20477;-77
2023/07/27 07:48:28;;;;;;;0.13;0.13;;;;;;;12.55;100.00;95882.53;5034324;28;20037;-78
2023/07/27 07:51:15;;;;;;;0.10;0.10;;;;;;;12.61;100.00;95872.59;5033820;28;20124;-78
2023/07/27 07:54:01;;;;;;;0.10;0.10;;;;;;;12.77;100.00;95866.09;5033327;28;20049;-77
2023/07/27 07:56:47;;;;;;;0.10;0.10;;;;;;;12.80;100.00;95860.16;5034321;28;20041;-78
2023/07/27 07:59:33;;;;;;;0.20;0.20;;;;;;;12.66;100.00;95848.41;5036739;28;20049;-78
2023/07/27 08:02:19;;;;;;;0.10;0.10;;;;;;;12.71;100.00;95838.44;5021070;28;20045;-79
2023/07/27 08:05:05;;;;;;;0.08;0.08;;;;;;;12.62;100.00;95844.69;5036545;28;20087;-78
2023/07/27 08:07:51;;;;;;;0.10;0.10;;;;;;;12.71;100.00;95840.34;5037119;28;20064;-79
2023/07/27 08:10:37;;;;;;;0.10;0.10;;;;;;;12.65;100.00;95834.19;5039478;28;20041;-78
2023/07/27 08:13:23;;;;;;;0.10;0.10;;;;;;;12.63;100.00;95832.88;5039130;28;20396;-79
2023/07/27 08:16:09;;;;;;;0.10;0.10;;;;;;;12.66;100.00;95841.16;5037936;28;20516;-79
2023/07/27 08:18:55;;;;;;;0.10;0.10;;;;;;;12.69;100.00;95840.63;5035377;28;20579;-80
2023/07/27 08:21:41;;;;;;;0.10;0.10;;;;;;;12.85;100.00;95835.16;5035784;28;20138;-80
2023/07/27 08:24:27;;;;;;;0.10;0.10;;;;;;;12.91;100.00;95826.78;5039443;28;20072;-77
2023/07/27 08:27:13;;;;;;;0.10;0.10;;;;;;;13.06;100.00;95824.00;5024560;28;20045;-78
2023/07/27 08:29:59;;;;;;;0.10;0.10;;;;;;;13.21;100.00;95823.13;5038723;28;20548;-78
2023/07/27 08:32:46;;;;;;;0.10;0.10;;;;;;;13.27;100.00;95818.50;5035793;28;20128;-79
2023/07/27 08:35:32;;;;;;;0.10;0.10;;;;;;;13.15;100.00;95826.91;5038100;28;21113;-78
2023/07/27 08:38:18;;;;;;;0.10;0.10;;;;;;;13.20;100.00;95832.25;5037776;28;20646;-76
2023/07/27 08:41:04;;;;;;;0.10;0.10;;;;;;;13.10;100.00;95833.09;5039265;28;20045;-79
2023/07/27 08:43:51;;;;;;;0.10;0.10;;;;;;;13.09;100.00;95825.34;5036778;28;20041;-78
2023/07/27 08:46:37;;;;;;;0.10;0.10;;;;;;;13.11;100.00;95834.72;5037926;28;20037;-78
2023/07/27 08:49:24;;;;;;;0.10;0.10;;;;;;;13.27;100.00;95816.63;5035594;28;20439;-79
2023/07/27 08:52:12;;;;;;;0.10;0.10;;;;;;;13.36;100.00;95814.13;5039468;28;20442;-78
2023/07/27 08:54:58;;;;;;;0.10;0.10;;;;;;;13.45;100.00;95801.69;5037939;28;20502;-79
2023/07/27 08:57:44;;;;;;;0.10;0.10;;;;;;;13.60;100.00;95798.88;5036537;28;20049;-79
2023/07/27 09:00:31;;;;;;;0.10;0.10;;;;;;;13.46;100.00;95795.22;5035100;28;20049;-79
2023/07/27 09:03:17;;;;;;;0.10;0.10;;;;;;;13.48;100.00;95798.47;5036771;28;20132;-79
2023/07/27 09:06:03;;;;;;;0.10;0.10;;;;;;;13.59;100.00;95807.22;5037945;28;20033;-78
2023/07/27 09:08:49;;;;;;;0.10;0.10;;;;;;;13.70;100.00;95797.19;5037193;28;20052;-79
2023/07/27 09:11:38;;;;;;;0.05;0.05;;;;;;;13.71;100.00;95798.78;5021129;28;20809;-78
2023/07/27 09:14:24;;;;;;;0.10;0.10;;;;;;;13.80;100.00;95784.44;5037744;28;20420;-79
2023/07/27 09:17:12;;;;;;;0.10;0.10;;;;;;;13.83;100.00;95791.13;5037667;28;20311;-78
2023/07/27 09:19:59;;;;;;;0.10;0.10;;;;;;;13.86;100.00;95787.88;5018167;28;20712;-80
2023/07/27 09:22:45;;;;;;;0.10;0.10;;;;;;;14.03;100.00;95790.13;5035930;28;20124;-78
2023/07/27 09:25:31;;;;;;;0.10;0.10;;;;;;;14.12;100.00;95783.81;5037041;28;20064;-79
2023/07/27 09:28:23;;;;;;;0.10;0.10;;;;;;;13.89;100.00;95785.41;5035703;28;20041;-77
2023/07/27 09:31:09;;;;;;;0.10;0.10;;;;;;;14.00;100.00;95783.41;5022651;28;20083;-78
2023/07/27 09:33:55;;;;;;;0.10;0.10;;;;;;;14.10;100.00;95790.59;5035549;28;20047;-77
2023/07/27 09:36:41;;;;;;;0.10;0.10;;;;;;;14.02;100.00;95780.44;5037907;28;20110;-78
2023/07/27 09:39:28;;;;;;;0.00;0.00;;;;;;;13.97;100.00;95783.97;5036218;28;20111;-78
2023/07/27 09:42:15;;;;;;;0.10;0.10;;;;;;;14.04;100.00;95797.09;5033162;28;20053;-78
2023/07/27 09:45:01;;;;;;;0.10;0.10;;;;;;;14.01;100.00;95789.59;5033754;28;20033;-78
2023/07/27 09:47:49;;;;;;;0.10;0.10;;;;;;;14.08;100.00;95779.28;5036341;28;20036;-77
2023/07/27 09:50:36;;;;;;;0.00;0.00;;;;;;;14.10;100.00;95779.81;5037032;28;20055;-77
2023/07/27 09:53:23;;;;;;;0.10;0.10;;;;;;;13.99;100.00;95787.19;5035616;28;20518;-77
2023/07/27 09:56:10;;;;;;;0.10;0.10;;;;;;;14.10;100.00;95780.63;5036745;28;20045;-77
2023/07/27 09:58:57;;;;;;;0.13;0.13;;;;;;;14.15;100.00;95772.47;5035294;28;20254;-77
2023/07/27 10:01:43;;;;;;;0.10;0.10;;;;;;;14.20;100.00;95791.25;5035409;28;20049;-79
2023/07/27 10:04:29;;;;;;;0.00;0.00;;;;;;;14.28;100.00;95775.56;5037203;28;20083;-78
2023/07/27 10:07:19;;;;;;;0.10;0.10;;;;;;;14.20;100.00;95779.69;5033382;28;20037;-78
2023/07/27 10:10:27;;;;;;;0.10;0.10;;;;;;;14.18;100.00;95782.69;5024483;28;20040;-77
2023/07/27 10:13:22;;;;;;;0.10;0.10;;;;;;;14.22;100.00;95772.13;5037252;28;20111;-77
2023/07/27 10:16:10;;;;;;;0.10;0.10;;;;;;;14.18;100.00;95777.28;5037990;28;20052;-77
2023/07/27 10:18:56;;;;;;;0.10;0.10;;;;;;;14.29;100.00;95774.47;5034902;28;20170;-77
2023/07/27 10:21:48;;;;;;;0.10;0.10;;;;;;;14.49;100.00;95776.94;5035753;28;20148;-77
2023/07/27 10:24:45;;;;;;;0.10;0.10;;;;;;;14.49;100.00;95768.88;5034705;28;20045;-78
2023/07/27 10:27:55;;;;;;;0.10;0.10;;;;;;;14.47;100.00;95773.72;5021944;28;20487;-76
2023/07/27 10:30:43;;;;;;;0.10;0.10;;;;;;;14.39;100.00;95771.63;5037441;28;20350;-76
2023/07/27 10:33:28;;;;;;;0.10;0.10;;;;;;;14.44;100.00;95779.66;5036124;28;20041;-77
2023/07/27 10:36:15;;;;;;;0.10;0.10;;;;;;;14.50;100.00;95781.22;5033340;28;20053;-79
2023/07/27 10:39:01;;;;;;;0.10;0.10;;;;;;;14.59;100.00;95774.09;5034749;28;20568;-77
2023/07/27 10:42:00;;;;;;;0.10;0.10;;;;;;;14.64;100.00;95778.63;5019744;28;20049;-77
2023/07/27 10:44:57;;;;;;;0.10;0.10;;;;;;;14.33;100.00;95773.63;5034752;28;20072;-77
2023/07/27 10:47:48;;;;;;;0.08;0.08;;;;;;;14.36;100.00;95778.41;5019206;28;20084;-77
2023/07/27 10:50:39;;;;;;;0.10;0.10;;;;;;;14.37;100.00;95777.31;5034211;28;20070;-78
2023/07/27 10:53:26;;;;;;;0.10;0.10;;;;;;;14.59;100.00;95770.63;5036079;28;20049;-78
2023/07/27 10:56:13;;;;;;;0.10;0.10;;;;;;;14.51;100.00;95768.56;5035268;28;20356;-79
2023/07/27 10:58:59;;;;;;;0.10;0.10;;;;;;;14.65;100.00;95775.66;5032818;28;20556;-80
2023/07/27 11:01:47;;;;;;;0.10;0.10;;;;;;;14.68;100.00;95758.09;5033375;28;20406;-78
2023/07/27 11:04:34;;;;;;;0.10;0.10;;;;;;;14.52;100.00;95764.78;5033324;28;20045;-80
2023/07/27 11:07:33;;;;;;;0.10;0.10;;;;;;;14.69;100.00;95760.50;5031776;28;20050;-78
2023/07/27 11:10:30;;;;;;;0.10;0.10;;;;;;;14.74;100.00;95752.34;5036698;28;20174;-78
2023/07/27 11:13:22;;;;;;;0.10;0.10;;;;;;;14.76;100.00;95754.75;5032472;28;20040;-78
2023/07/27 11:16:08;;;;;;;0.10;0.10;;;;;;;14.78;100.00;95757.94;5035421;28;20096;-78
2023/07/27 11:18:54;;;;;;;0.10;0.10;;;;;;;14.84;100.00;95755.97;5020816;28;20056;-77
2023/07/27 11:21:40;;;;;;;0.20;0.20;;;;;;;14.91;100.00;95762.59;5034101;28;20079;-80
2023/07/27 11:24:26;;;;;;;0.20;0.20;;;;;;;14.77;100.00;95753.66;5035439;28;20032;-78
2023/07/27 11:27:13;;;;;;;0.20;0.20;;;;;;;14.92;100.00;95755.31;5035585;28;20380;-79
2023/07/27 11:29:59;;;;;;;0.10;0.10;;;;;;;14.90;100.00;95761.00;5034069;28;20107;-77
2023/07/27 11:33:14;;;;;;;0.10;0.10;;;;;;;14.94;100.00;95742.34;5031009;28;20592;-78
2023/07/27 11:36:00;;;;;;;0.10;0.10;;;;;;;15.19;100.00;95747.34;5032344;28;20395;-78
2023/07/27 11:38:49;;;;;;;0.10;0.10;;;;;;;15.44;100.00;95735.34;5040167;28;20045;-78
2023/07/27 11:41:35;;;;;;;0.10;0.10;;;;;;;15.44;100.00;95732.66;5041133;28;20048;-78
2023/07/27 11:44:22;;;;;;;0.10;0.10;;;;;;;15.60;100.00;95728.56;5038606;28;20044;-80
2023/07/27 11:47:09;;;;;;;0.10;0.10;;;;;;;15.77;100.00;95721.81;5025177;28;20554;-80
2023/07/27 11:49:57;;;;;;;0.10;0.10;;;;;;;16.02;100.00;95728.63;5039922;28;20148;-80
2023/07/27 11:52:43;;;;;;;0.10;0.10;;;;;;;16.05;100.00;95709.16;5022035;28;20659;-76
2023/07/27 11:55:36;;;;;;;0.10;0.10;;;;;;;16.09;100.00;95723.63;5027221;28;20102;-77
2023/07/27 11:58:30;;;;;;;0.10;0.10;;;;;;;16.51;100.00;95722.47;5020804;28;20382;-77
2023/07/27 12:01:16;;;;;;;0.10;0.10;;;;;;;16.98;100.00;95712.25;5037741;28;20569;-78
2023/07/27 12:04:05;;;;;;;0.15;0.15;;;;;;;16.96;100.00;95703.63;5022995;28;20095;-77
2023/07/27 12:06:51;;;;;;;0.10;0.10;;;;;;;16.84;100.00;95706.91;5036132;28;20033;-78
2023/07/27 12:09:37;;;;;;;0.10;0.10;;;;;;;16.96;100.00;95704.47;5038717;28;20375;-77
2023/07/27 12:12:23;;;;;;;0.10;0.10;;;;;;;16.60;100.00;95709.06;5036378;28;20036;-78
2023/07/27 12:15:27;;;;;;;0.10;0.10;;;;;;;16.40;100.00;95721.09;5036091;28;20047;-78
2023/07/27 12:18:13;;;;;;;0.10;0.10;;;;;;;16.71;100.00;95710.44;5035608;28;20108;-78
2023/07/27 12:20:59;;;;;;;0.10;0.10;;;;;;;16.99;100.00;95711.94;5036098;28;20084;-76
2023/07/27 12:23:45;;;;;;;0.10;0.10;;;;;;;16.90;100.00;95705.69;5035441;28;20037;-78
2023/07/27 12:26:31;;;;;;;0.10;0.10;;;;;;;16.55;100.00;95701.06;5038677;28;20047;-78
2023/07/27 12:29:16;;;;;;;0.10;0.10;;;;;;;16.46;100.00;95708.28;5036411;28;20041;-77
2023/07/27 12:32:03;;;;;;;0.10;0.10;;;;;;;16.80;100.00;95708.59;5036063;28;20063;-78
2023/07/27 12:34:48;;;;;;;0.13;0.13;;;;;;;17.04;100.00;95705.59;5037853;28;20122;-77
2023/07/27 12:37:35;;;;;;;0.10;0.10;;;;;;;17.40;100.00;95705.53;5019343;28;20473;-77
2023/07/27 12:40:21;;;;;;;0.10;0.10;;;;;;;17.50;100.00;95709.84;5039330;28;20506;-77
2023/07/27 12:43:07;;;;;;;0.10;0.10;;;;;;;17.53;100.00;95710.06;5036657;28;20045;-78
2023/07/27 12:45:53;;;;;;;0.10;0.10;;;;;;;17.73;100.00;95702.53;5036863;28;20037;-79
2023/07/27 12:48:39;;;;;;;0.10;0.10;;;;;;;17.51;100.00;95703.38;5037675;28;20092;-78
2023/07/27 12:51:25;;;;;;;0.15;0.15;;;;;;;17.35;100.00;95689.41;5037783;28;20037;-79
2023/07/27 12:54:11;;;;;;;0.10;0.10;;;;;;;16.86;100.00;95709.28;5036761;28;20043;-78
2023/07/27 12:56:57;;;;;;;0.10;0.10;;;;;;;16.97;100.00;95707.97;5023121;28;20115;-77
2023/07/27 12:59:43;;;;;;;0.10;0.10;;;;;;;16.77;100.00;95708.44;5039935;28;20524;-78